sensor_id;sensor_type;location;lat;lon;timestamp;P1;durP1;ratioP1;P2;durP2;ratioP2
11473;SDS011;5793;52.238;13.438;2023-11-19T00:00:21;7.30;;;5.57;;
11473;SDS011;5793;52.238;13.438;2023-11-19T00:02:50;7.40;;;6.53;;
11473;SDS011;5793;52.238;13.438;2023-11-19T00:05:18;10.50;;;7.27;;
11473;SDS011;5793;52.238;13.438;2023-11-19T00:07:47;7.00;;;6.10;;
11473;SDS011;5793;52.238;13.438;2023-11-19T00:10:15;6.77;;;5.60;;
11473;SDS011;5793;52.238;13.438;2023-11-19T00:12:46;9.73;;;6.83;;
11473;SDS011;5793;52.238;13.438;2023-11-19T00:15:14;7.77;;;6.47;;
11473;SDS011;5793;52.238;13.438;2023-11-19T00:17:45;7.70;;;5.97;;
11473;SDS011;5793;52.238;13.438;2023-11-19T00:20:14;8.73;;;6.40;;
11473;SDS011;5793;52.238;13.438;2023-11-19T00:22:43;9.60;;;6.70;;
11473;SDS011;5793;52.238;13.438;2023-11-19T00:25:17;7.27;;;5.90;;
11473;SDS011;5793;52.238;13.438;2023-11-19T00:27:45;9.20;;;6.20;;
11473;SDS011;5793;52.238;13.438;2023-11-19T00:30:13;10.63;;;6.47;;
11473;SDS011;5793;52.238;13.438;2023-11-19T00:32:43;7.53;;;6.33;;
11473;SDS011;5793;52.238;13.438;2023-11-19T00:35:11;10.07;;;6.20;;
11473;SDS011;5793;52.238;13.438;2023-11-19T00:37:41;8.53;;;6.60;;
11473;SDS011;5793;52.238;13.438;2023-11-19T00:40:12;6.83;;;5.73;;
11473;SDS011;5793;52.238;13.438;2023-11-19T00:42:43;6.60;;;5.63;;
11473;SDS011;5793;52.238;13.438;2023-11-19T00:45:11;8.73;;;6.27;;
11473;SDS011;5793;52.238;13.438;2023-11-19T00:47:39;9.40;;;6.53;;
11473;SDS011;5793;52.238;13.438;2023-11-19T00:50:08;7.17;;;6.17;;
11473;SDS011;5793;52.238;13.438;2023-11-19T00:52:36;7.83;;;5.87;;
11473;SDS011;5793;52.238;13.438;2023-11-19T00:55:05;9.90;;;6.13;;
11473;SDS011;5793;52.238;13.438;2023-11-19T00:57:34;7.90;;;6.17;;
11473;SDS011;5793;52.238;13.438;2023-11-19T01:00:04;8.13;;;6.47;;
11473;SDS011;5793;52.238;13.438;2023-11-19T01:02:44;8.20;;;6.03;;
11473;SDS011;5793;52.238;13.438;2023-11-19T01:05:13;6.70;;;5.90;;
11473;SDS011;5793;52.238;13.438;2023-11-19T01:07:41;7.70;;;6.10;;
11473;SDS011;5793;52.238;13.438;2023-11-19T01:10:09;8.00;;;6.20;;
11473;SDS011;5793;52.238;13.438;2023-11-19T01:12:37;7.07;;;5.93;;
11473;SDS011;5793;52.238;13.438;2023-11-19T01:15:07;7.47;;;6.50;;
11473;SDS011;5793;52.238;13.438;2023-11-19T01:17:36;7.40;;;5.93;;
11473;SDS011;5793;52.238;13.438;2023-11-19T01:20:04;8.87;;;6.13;;
11473;SDS011;5793;52.238;13.438;2023-11-19T01:22:33;7.67;;;6.00;;
11473;SDS011;5793;52.238;13.438;2023-11-19T01:25:01;10.57;;;6.33;;
11473;SDS011;5793;52.238;13.438;2023-11-19T01:27:31;8.20;;;5.80;;
11473;SDS011;5793;52.238;13.438;2023-11-19T01:30:00;7.47;;;5.70;;
11473;SDS011;5793;52.238;13.438;2023-11-19T01:32:31;6.63;;;5.57;;
11473;SDS011;5793;52.238;13.438;2023-11-19T01:34:59;9.27;;;6.20;;
11473;SDS011;5793;52.238;13.438;2023-11-19T01:37:27;7.03;;;5.90;;
11473;SDS011;5793;52.238;13.438;2023-11-19T01:39:55;7.07;;;5.30;;
11473;SDS011;5793;52.238;13.438;2023-11-19T01:42:24;8.60;;;6.00;;
11473;SDS011;5793;52.238;13.438;2023-11-19T01:44:54;7.17;;;5.77;;
11473;SDS011;5793;52.238;13.438;2023-11-19T01:47:25;8.07;;;5.67;;
11473;SDS011;5793;52.238;13.438;2023-11-19T01:49:55;6.63;;;5.73;;
11473;SDS011;5793;52.238;13.438;2023-11-19T01:52:24;6.73;;;5.93;;
11473;SDS011;5793;52.238;13.438;2023-11-19T01:54:53;6.10;;;4.93;;
11473;SDS011;5793;52.238;13.438;2023-11-19T01:57:22;7.60;;;5.37;;
11473;SDS011;5793;52.238;13.438;2023-11-19T01:59:50;7.80;;;5.67;;
11473;SDS011;5793;52.238;13.438;2023-11-19T02:02:19;9.47;;;5.20;;
11473;SDS011;5793;52.238;13.438;2023-11-19T02:04:49;6.97;;;5.83;;
11473;SDS011;5793;52.238;13.438;2023-11-19T02:07:19;8.57;;;5.53;;
11473;SDS011;5793;52.238;13.438;2023-11-19T02:09:47;7.60;;;5.10;;
11473;SDS011;5793;52.238;13.438;2023-11-19T02:12:15;8.97;;;5.17;;
11473;SDS011;5793;52.238;13.438;2023-11-19T02:14:43;6.40;;;4.60;;
11473;SDS011;5793;52.238;13.438;2023-11-19T02:17:24;7.00;;;5.23;;
11473;SDS011;5793;52.238;13.438;2023-11-19T02:19:52;7.03;;;5.33;;
11473;SDS011;5793;52.238;13.438;2023-11-19T02:22:22;5.13;;;4.47;;
11473;SDS011;5793;52.238;13.438;2023-11-19T02:24:51;21.47;;;6.07;;
11473;SDS011;5793;52.238;13.438;2023-11-19T02:27:24;7.73;;;5.37;;
11473;SDS011;5793;52.238;13.438;2023-11-19T02:29:59;6.83;;;4.97;;
11473;SDS011;5793;52.238;13.438;2023-11-19T02:32:27;6.13;;;5.23;;
11473;SDS011;5793;52.238;13.438;2023-11-19T02:34:57;5.90;;;4.60;;
11473;SDS011;5793;52.238;13.438;2023-11-19T02:37:33;8.90;;;4.67;;
11473;SDS011;5793;52.238;13.438;2023-11-19T02:40:01;9.23;;;4.63;;
11473;SDS011;5793;52.238;13.438;2023-11-19T02:42:31;4.83;;;4.13;;
11473;SDS011;5793;52.238;13.438;2023-11-19T02:45:00;6.63;;;4.37;;
11473;SDS011;5793;52.238;13.438;2023-11-19T02:47:32;5.77;;;4.20;;
11473;SDS011;5793;52.238;13.438;2023-11-19T02:50:00;5.07;;;4.03;;
11473;SDS011;5793;52.238;13.438;2023-11-19T02:52:28;6.07;;;4.30;;
11473;SDS011;5793;52.238;13.438;2023-11-19T02:55:01;5.17;;;4.00;;
11473;SDS011;5793;52.238;13.438;2023-11-19T02:57:30;5.67;;;4.10;;
11473;SDS011;5793;52.238;13.438;2023-11-19T02:59:58;5.63;;;4.43;;
11473;SDS011;5793;52.238;13.438;2023-11-19T03:02:32;4.93;;;3.80;;
11473;SDS011;5793;52.238;13.438;2023-11-19T03:05:10;4.40;;;3.83;;
11473;SDS011;5793;52.238;13.438;2023-11-19T03:07:38;5.10;;;4.00;;
11473;SDS011;5793;52.238;13.438;2023-11-19T03:10:06;4.87;;;4.00;;
11473;SDS011;5793;52.238;13.438;2023-11-19T03:12:35;5.83;;;4.30;;
11473;SDS011;5793;52.238;13.438;2023-11-19T03:15:05;6.70;;;4.20;;
11473;SDS011;5793;52.238;13.438;2023-11-19T03:17:33;4.30;;;3.73;;
11473;SDS011;5793;52.238;13.438;2023-11-19T03:20:01;6.97;;;4.80;;
11473;SDS011;5793;52.238;13.438;2023-11-19T03:22:29;4.97;;;4.00;;
11473;SDS011;5793;52.238;13.438;2023-11-19T03:24:57;5.47;;;4.10;;
11473;SDS011;5793;52.238;13.438;2023-11-19T03:27:24;7.70;;;4.87;;
11473;SDS011;5793;52.238;13.438;2023-11-19T03:29:52;5.83;;;4.40;;
11473;SDS011;5793;52.238;13.438;2023-11-19T03:32:21;5.80;;;4.77;;
11473;SDS011;5793;52.238;13.438;2023-11-19T03:34:49;5.57;;;4.70;;
11473;SDS011;5793;52.238;13.438;2023-11-19T03:37:17;6.90;;;5.00;;
11473;SDS011;5793;52.238;13.438;2023-11-19T03:39:45;6.97;;;4.53;;
11473;SDS011;5793;52.238;13.438;2023-11-19T03:42:13;7.20;;;5.37;;
11473;SDS011;5793;52.238;13.438;2023-11-19T03:44:41;6.97;;;5.33;;
11473;SDS011;5793;52.238;13.438;2023-11-19T03:47:09;6.47;;;5.77;;
11473;SDS011;5793;52.238;13.438;2023-11-19T03:49:38;6.67;;;5.33;;
11473;SDS011;5793;52.238;13.438;2023-11-19T03:52:05;7.93;;;5.93;;
11473;SDS011;5793;52.238;13.438;2023-11-19T03:54:45;6.63;;;5.77;;
11473;SDS011;5793;52.238;13.438;2023-11-19T03:57:13;8.80;;;6.70;;
11473;SDS011;5793;52.238;13.438;2023-11-19T03:59:42;9.37;;;6.57;;
11473;SDS011;5793;52.238;13.438;2023-11-19T04:02:10;10.13;;;7.13;;
11473;SDS011;5793;52.238;13.438;2023-11-19T04:04:39;13.03;;;6.93;;
11473;SDS011;5793;52.238;13.438;2023-11-19T04:07:07;10.70;;;7.00;;
11473;SDS011;5793;52.238;13.438;2023-11-19T04:09:35;9.47;;;7.03;;
11473;SDS011;5793;52.238;13.438;2023-11-19T04:12:04;10.37;;;6.93;;
11473;SDS011;5793;52.238;13.438;2023-11-19T04:14:33;8.97;;;7.10;;
11473;SDS011;5793;52.238;13.438;2023-11-19T04:17:00;9.50;;;7.43;;
11473;SDS011;5793;52.238;13.438;2023-11-19T04:19:28;10.03;;;8.27;;
11473;SDS011;5793;52.238;13.438;2023-11-19T04:22:00;14.03;;;7.93;;
11473;SDS011;5793;52.238;13.438;2023-11-19T04:24:28;11.63;;;8.57;;
11473;SDS011;5793;52.238;13.438;2023-11-19T04:26:56;9.90;;;8.27;;
11473;SDS011;5793;52.238;13.438;2023-11-19T04:29:24;14.10;;;8.40;;
11473;SDS011;5793;52.238;13.438;2023-11-19T04:31:52;10.47;;;8.23;;
11473;SDS011;5793;52.238;13.438;2023-11-19T04:34:19;10.47;;;8.00;;
11473;SDS011;5793;52.238;13.438;2023-11-19T04:36:47;11.10;;;7.97;;
11473;SDS011;5793;52.238;13.438;2023-11-19T04:39:16;10.27;;;8.20;;
11473;SDS011;5793;52.238;13.438;2023-11-19T04:41:45;10.73;;;8.60;;
11473;SDS011;5793;52.238;13.438;2023-11-19T04:44:14;13.23;;;9.77;;
11473;SDS011;5793;52.238;13.438;2023-11-19T04:46:42;10.83;;;8.70;;
11473;SDS011;5793;52.238;13.438;2023-11-19T04:49:11;12.13;;;9.67;;
11473;SDS011;5793;52.238;13.438;2023-11-19T04:51:40;13.03;;;10.03;;
11473;SDS011;5793;52.238;13.438;2023-11-19T04:54:08;13.53;;;9.83;;
11473;SDS011;5793;52.238;13.438;2023-11-19T04:56:38;16.07;;;10.40;;
11473;SDS011;5793;52.238;13.438;2023-11-19T04:59:06;16.43;;;10.53;;
11473;SDS011;5793;52.238;13.438;2023-11-19T05:01:35;12.83;;;9.80;;
11473;SDS011;5793;52.238;13.438;2023-11-19T05:04:03;13.50;;;9.77;;
11473;SDS011;5793;52.238;13.438;2023-11-19T05:06:31;12.27;;;9.53;;
11473;SDS011;5793;52.238;13.438;2023-11-19T05:08:59;15.80;;;9.93;;
11473;SDS011;5793;52.238;13.438;2023-11-19T05:11:32;12.93;;;9.70;;
11473;SDS011;5793;52.238;13.438;2023-11-19T05:14:02;15.00;;;10.07;;
11473;SDS011;5793;52.238;13.438;2023-11-19T05:16:31;13.07;;;9.93;;
11473;SDS011;5793;52.238;13.438;2023-11-19T05:18:59;13.77;;;9.83;;
11473;SDS011;5793;52.238;13.438;2023-11-19T05:21:27;10.47;;;8.63;;
11473;SDS011;5793;52.238;13.438;2023-11-19T05:23:55;11.13;;;8.93;;
11473;SDS011;5793;52.238;13.438;2023-11-19T05:26:23;12.20;;;9.43;;
11473;SDS011;5793;52.238;13.438;2023-11-19T05:28:51;11.93;;;8.77;;
11473;SDS011;5793;52.238;13.438;2023-11-19T05:31:20;11.67;;;8.47;;
11473;SDS011;5793;52.238;13.438;2023-11-19T05:33:48;15.47;;;10.03;;
11473;SDS011;5793;52.238;13.438;2023-11-19T05:36:16;14.37;;;8.97;;
11473;SDS011;5793;52.238;13.438;2023-11-19T05:38:44;12.27;;;9.00;;
11473;SDS011;5793;52.238;13.438;2023-11-19T05:41:11;12.30;;;9.77;;
11473;SDS011;5793;52.238;13.438;2023-11-19T05:43:39;12.97;;;9.13;;
11473;SDS011;5793;52.238;13.438;2023-11-19T05:46:07;13.73;;;9.70;;
11473;SDS011;5793;52.238;13.438;2023-11-19T05:48:39;14.23;;;8.63;;
11473;SDS011;5793;52.238;13.438;2023-11-19T05:51:07;11.83;;;8.87;;
11473;SDS011;5793;52.238;13.438;2023-11-19T05:53:35;11.60;;;9.50;;
11473;SDS011;5793;52.238;13.438;2023-11-19T05:56:03;11.40;;;9.00;;
11473;SDS011;5793;52.238;13.438;2023-11-19T05:58:32;13.97;;;9.40;;
11473;SDS011;5793;52.238;13.438;2023-11-19T06:00:59;12.87;;;8.80;;
11473;SDS011;5793;52.238;13.438;2023-11-19T06:03:29;11.17;;;9.20;;
11473;SDS011;5793;52.238;13.438;2023-11-19T06:05:58;13.10;;;8.33;;
11473;SDS011;5793;52.238;13.438;2023-11-19T06:08:26;12.43;;;9.50;;
11473;SDS011;5793;52.238;13.438;2023-11-19T06:10:54;11.87;;;8.60;;
11473;SDS011;5793;52.238;13.438;2023-11-19T06:13:22;13.40;;;9.27;;
11473;SDS011;5793;52.238;13.438;2023-11-19T06:15:52;12.30;;;9.30;;
11473;SDS011;5793;52.238;13.438;2023-11-19T06:18:19;12.60;;;9.43;;
11473;SDS011;5793;52.238;13.438;2023-11-19T06:20:49;13.10;;;9.30;;
11473;SDS011;5793;52.238;13.438;2023-11-19T06:23:18;13.83;;;9.07;;
11473;SDS011;5793;52.238;13.438;2023-11-19T06:25:46;15.77;;;10.43;;
11473;SDS011;5793;52.238;13.438;2023-11-19T06:28:14;12.00;;;9.17;;
11473;SDS011;5793;52.238;13.438;2023-11-19T06:30:42;12.37;;;9.40;;
11473;SDS011;5793;52.238;13.438;2023-11-19T06:33:13;13.60;;;9.87;;
11473;SDS011;5793;52.238;13.438;2023-11-19T06:35:41;13.93;;;9.37;;
11473;SDS011;5793;52.238;13.438;2023-11-19T06:38:10;11.53;;;9.20;;
11473;SDS011;5793;52.238;13.438;2023-11-19T06:40:39;11.33;;;8.70;;
11473;SDS011;5793;52.238;13.438;2023-11-19T06:43:07;12.00;;;8.83;;
11473;SDS011;5793;52.238;13.438;2023-11-19T06:45:35;11.63;;;9.17;;
11473;SDS011;5793;52.238;13.438;2023-11-19T06:48:04;12.97;;;9.67;;
11473;SDS011;5793;52.238;13.438;2023-11-19T06:50:32;13.97;;;9.90;;
11473;SDS011;5793;52.238;13.438;2023-11-19T06:53:00;13.43;;;9.67;;
11473;SDS011;5793;52.238;13.438;2023-11-19T06:55:28;11.73;;;9.23;;
11473;SDS011;5793;52.238;13.438;2023-11-19T06:57:59;12.03;;;8.93;;
11473;SDS011;5793;52.238;13.438;2023-11-19T07:00:28;11.87;;;9.07;;
11473;SDS011;5793;52.238;13.438;2023-11-19T07:02:59;14.40;;;11.07;;
11473;SDS011;5793;52.238;13.438;2023-11-19T07:05:27;12.67;;;9.13;;
11473;SDS011;5793;52.238;13.438;2023-11-19T07:07:57;12.83;;;8.77;;
11473;SDS011;5793;52.238;13.438;2023-11-19T07:10:25;11.97;;;8.77;;
11473;SDS011;5793;52.238;13.438;2023-11-19T07:12:53;15.33;;;9.33;;
11473;SDS011;5793;52.238;13.438;2023-11-19T07:15:22;13.53;;;9.70;;
11473;SDS011;5793;52.238;13.438;2023-11-19T07:17:49;16.13;;;9.40;;
11473;SDS011;5793;52.238;13.438;2023-11-19T07:20:20;13.83;;;9.40;;
11473;SDS011;5793;52.238;13.438;2023-11-19T07:22:48;12.10;;;9.03;;
11473;SDS011;5793;52.238;13.438;2023-11-19T07:25:16;11.43;;;8.87;;
11473;SDS011;5793;52.238;13.438;2023-11-19T07:27:44;10.83;;;8.47;;
11473;SDS011;5793;52.238;13.438;2023-11-19T07:30:13;12.57;;;8.53;;
11473;SDS011;5793;52.238;13.438;2023-11-19T07:32:42;11.93;;;8.10;;
11473;SDS011;5793;52.238;13.438;2023-11-19T07:35:10;11.63;;;8.70;;
11473;SDS011;5793;52.238;13.438;2023-11-19T07:37:38;10.00;;;7.93;;
11473;SDS011;5793;52.238;13.438;2023-11-19T07:40:06;10.73;;;8.40;;
11473;SDS011;5793;52.238;13.438;2023-11-19T07:42:35;9.73;;;7.33;;
11473;SDS011;5793;52.238;13.438;2023-11-19T07:45:04;11.70;;;7.80;;
11473;SDS011;5793;52.238;13.438;2023-11-19T07:47:33;12.87;;;8.43;;
11473;SDS011;5793;52.238;13.438;2023-11-19T07:50:03;10.93;;;7.43;;
11473;SDS011;5793;52.238;13.438;2023-11-19T07:52:31;9.93;;;7.33;;
11473;SDS011;5793;52.238;13.438;2023-11-19T07:54:59;9.60;;;7.17;;
11473;SDS011;5793;52.238;13.438;2023-11-19T07:57:27;8.70;;;6.73;;
11473;SDS011;5793;52.238;13.438;2023-11-19T07:59:57;10.07;;;6.70;;
11473;SDS011;5793;52.238;13.438;2023-11-19T08:02:24;9.33;;;6.87;;
11473;SDS011;5793;52.238;13.438;2023-11-19T08:04:52;10.03;;;6.30;;
11473;SDS011;5793;52.238;13.438;2023-11-19T08:07:23;8.37;;;6.27;;
11473;SDS011;5793;52.238;13.438;2023-11-19T08:09:50;8.77;;;6.20;;
11473;SDS011;5793;52.238;13.438;2023-11-19T08:12:18;8.30;;;6.20;;
11473;SDS011;5793;52.238;13.438;2023-11-19T08:14:46;8.43;;;6.10;;
11473;SDS011;5793;52.238;13.438;2023-11-19T08:17:15;7.20;;;6.07;;
11473;SDS011;5793;52.238;13.438;2023-11-19T08:19:43;7.97;;;6.07;;
11473;SDS011;5793;52.238;13.438;2023-11-19T08:22:11;6.87;;;5.70;;
11473;SDS011;5793;52.238;13.438;2023-11-19T08:24:40;7.10;;;5.83;;
11473;SDS011;5793;52.238;13.438;2023-11-19T08:27:07;7.27;;;5.67;;
11473;SDS011;5793;52.238;13.438;2023-11-19T08:29:35;7.27;;;5.43;;
11473;SDS011;5793;52.238;13.438;2023-11-19T08:32:03;7.40;;;5.67;;
11473;SDS011;5793;52.238;13.438;2023-11-19T08:34:32;8.07;;;5.00;;
11473;SDS011;5793;52.238;13.438;2023-11-19T08:37:00;6.17;;;5.30;;
11473;SDS011;5793;52.238;13.438;2023-11-19T08:39:28;6.33;;;5.00;;
11473;SDS011;5793;52.238;13.438;2023-11-19T08:41:58;8.60;;;5.60;;
11473;SDS011;5793;52.238;13.438;2023-11-19T08:44:26;6.50;;;5.10;;
11473;SDS011;5793;52.238;13.438;2023-11-19T08:46:53;6.03;;;4.87;;
11473;SDS011;5793;52.238;13.438;2023-11-19T08:49:21;6.90;;;4.97;;
11473;SDS011;5793;52.238;13.438;2023-11-19T08:51:49;6.63;;;5.13;;
11473;SDS011;5793;52.238;13.438;2023-11-19T08:54:17;5.43;;;4.57;;
11473;SDS011;5793;52.238;13.438;2023-11-19T08:56:46;7.40;;;4.50;;
11473;SDS011;5793;52.238;13.438;2023-11-19T08:59:15;6.13;;;4.70;;
11473;SDS011;5793;52.238;13.438;2023-11-19T09:01:44;5.90;;;4.37;;
11473;SDS011;5793;52.238;13.438;2023-11-19T09:04:12;4.57;;;4.10;;
11473;SDS011;5793;52.238;13.438;2023-11-19T09:06:40;4.60;;;3.70;;
11473;SDS011;5793;52.238;13.438;2023-11-19T09:09:08;5.17;;;4.30;;
11473;SDS011;5793;52.238;13.438;2023-11-19T09:11:36;4.90;;;4.00;;
11473;SDS011;5793;52.238;13.438;2023-11-19T09:14:04;4.47;;;3.93;;
11473;SDS011;5793;52.238;13.438;2023-11-19T09:16:33;6.03;;;3.73;;
11473;SDS011;5793;52.238;13.438;2023-11-19T09:19:01;3.60;;;3.30;;
11473;SDS011;5793;52.238;13.438;2023-11-19T09:21:32;6.00;;;3.67;;
11473;SDS011;5793;52.238;13.438;2023-11-19T09:24:00;3.93;;;3.53;;
11473;SDS011;5793;52.238;13.438;2023-11-19T09:26:28;4.50;;;3.90;;
11473;SDS011;5793;52.238;13.438;2023-11-19T09:28:56;4.07;;;3.33;;
11473;SDS011;5793;52.238;13.438;2023-11-19T09:31:24;7.43;;;3.50;;
11473;SDS011;5793;52.238;13.438;2023-11-19T09:33:53;7.10;;;3.60;;
11473;SDS011;5793;52.238;13.438;2023-11-19T09:36:22;4.10;;;3.20;;
11473;SDS011;5793;52.238;13.438;2023-11-19T09:38:50;5.00;;;3.27;;
11473;SDS011;5793;52.238;13.438;2023-11-19T09:41:17;3.33;;;2.97;;
11473;SDS011;5793;52.238;13.438;2023-11-19T09:43:46;5.13;;;2.90;;
11473;SDS011;5793;52.238;13.438;2023-11-19T09:46:14;4.93;;;2.70;;
11473;SDS011;5793;52.238;13.438;2023-11-19T09:48:43;3.63;;;2.90;;
11473;SDS011;5793;52.238;13.438;2023-11-19T09:51:15;4.30;;;2.70;;
11473;SDS011;5793;52.238;13.438;2023-11-19T09:53:43;3.10;;;2.80;;
11473;SDS011;5793;52.238;13.438;2023-11-19T09:56:11;5.50;;;2.80;;
11473;SDS011;5793;52.238;13.438;2023-11-19T09:58:41;4.40;;;3.17;;
11473;SDS011;5793;52.238;13.438;2023-11-19T10:01:09;5.30;;;3.20;;
11473;SDS011;5793;52.238;13.438;2023-11-19T10:03:41;4.20;;;3.07;;
11473;SDS011;5793;52.238;13.438;2023-11-19T10:06:10;4.23;;;3.03;;
11473;SDS011;5793;52.238;13.438;2023-11-19T10:08:40;5.00;;;2.47;;
11473;SDS011;5793;52.238;13.438;2023-11-19T10:11:09;4.33;;;2.40;;
11473;SDS011;5793;52.238;13.438;2023-11-19T10:13:38;3.97;;;2.20;;
11473;SDS011;5793;52.238;13.438;2023-11-19T10:16:08;6.80;;;2.57;;
11473;SDS011;5793;52.238;13.438;2023-11-19T10:18:42;3.03;;;2.23;;
11473;SDS011;5793;52.238;13.438;2023-11-19T10:21:11;6.13;;;2.80;;
11473;SDS011;5793;52.238;13.438;2023-11-19T10:23:50;3.27;;;2.37;;
11473;SDS011;5793;52.238;13.438;2023-11-19T10:26:20;3.73;;;2.63;;
11473;SDS011;5793;52.238;13.438;2023-11-19T10:28:48;5.43;;;2.50;;
11473;SDS011;5793;52.238;13.438;2023-11-19T10:31:17;4.03;;;2.47;;
11473;SDS011;5793;52.238;13.438;2023-11-19T10:33:49;5.03;;;2.23;;
11473;SDS011;5793;52.238;13.438;2023-11-19T10:36:17;8.20;;;2.43;;
11473;SDS011;5793;52.238;13.438;2023-11-19T10:38:53;4.00;;;2.00;;
11473;SDS011;5793;52.238;13.438;2023-11-19T10:41:28;4.67;;;2.20;;
11473;SDS011;5793;52.238;13.438;2023-11-19T10:43:57;9.60;;;2.30;;
11473;SDS011;5793;52.238;13.438;2023-11-19T10:46:36;19.07;;;9.97;;
11473;SDS011;5793;52.238;13.438;2023-11-19T10:49:05;13.13;;;8.37;;
11473;SDS011;5793;52.238;13.438;2023-11-19T10:51:33;3.67;;;2.40;;
11473;SDS011;5793;52.238;13.438;2023-11-19T10:54:04;5.03;;;2.87;;
11473;SDS011;5793;52.238;13.438;2023-11-19T10:56:33;7.03;;;2.50;;
11473;SDS011;5793;52.238;13.438;2023-11-19T10:59:02;7.40;;;2.20;;
11473;SDS011;5793;52.238;13.438;2023-11-19T11:01:48;3.07;;;2.07;;
11473;SDS011;5793;52.238;13.438;2023-11-19T11:04:22;5.00;;;2.20;;
11473;SDS011;5793;52.238;13.438;2023-11-19T11:06:50;7.53;;;2.33;;
11473;SDS011;5793;52.238;13.438;2023-11-19T11:09:22;8.67;;;2.93;;
11473;SDS011;5793;52.238;13.438;2023-11-19T11:11:50;7.53;;;3.30;;
11473;SDS011;5793;52.238;13.438;2023-11-19T11:14:20;11.37;;;3.70;;
11473;SDS011;5793;52.238;13.438;2023-11-19T11:16:49;8.00;;;3.00;;
11473;SDS011;5793;52.238;13.438;2023-11-19T11:19:18;9.67;;;3.07;;
11473;SDS011;5793;52.238;13.438;2023-11-19T11:21:49;13.47;;;3.20;;
11473;SDS011;5793;52.238;13.438;2023-11-19T11:24:30;6.30;;;2.97;;
11473;SDS011;5793;52.238;13.438;2023-11-19T11:27:22;6.73;;;2.23;;
11473;SDS011;5793;52.238;13.438;2023-11-19T11:30:04;11.37;;;3.37;;
11473;SDS011;5793;52.238;13.438;2023-11-19T11:32:42;6.40;;;2.60;;
11473;SDS011;5793;52.238;13.438;2023-11-19T11:35:21;8.13;;;3.20;;
11473;SDS011;5793;52.238;13.438;2023-11-19T11:38:00;9.07;;;2.90;;
11473;SDS011;5793;52.238;13.438;2023-11-19T11:40:31;6.13;;;2.63;;
11473;SDS011;5793;52.238;13.438;2023-11-19T11:42:59;8.33;;;2.83;;
11473;SDS011;5793;52.238;13.438;2023-11-19T11:45:35;7.43;;;2.70;;
11473;SDS011;5793;52.238;13.438;2023-11-19T11:48:10;6.07;;;2.43;;
11473;SDS011;5793;52.238;13.438;2023-11-19T11:50:52;8.40;;;2.77;;
11473;SDS011;5793;52.238;13.438;2023-11-19T11:53:22;6.80;;;2.57;;
11473;SDS011;5793;52.238;13.438;2023-11-19T11:55:55;7.63;;;2.70;;
11473;SDS011;5793;52.238;13.438;2023-11-19T11:58:26;7.50;;;2.90;;
11473;SDS011;5793;52.238;13.438;2023-11-19T12:01:04;9.37;;;2.90;;
11473;SDS011;5793;52.238;13.438;2023-11-19T12:03:33;9.67;;;2.47;;
11473;SDS011;5793;52.238;13.438;2023-11-19T12:06:01;7.72;;;2.55;;
11473;SDS011;5793;52.238;13.438;2023-11-19T12:08:29;8.83;;;2.53;;
11473;SDS011;5793;52.238;13.438;2023-11-19T12:11:00;6.90;;;3.10;;
11473;SDS011;5793;52.238;13.438;2023-11-19T12:13:44;5.37;;;2.53;;
11473;SDS011;5793;52.238;13.438;2023-11-19T12:16:15;8.97;;;2.43;;
11473;SDS011;5793;52.238;13.438;2023-11-19T12:18:43;6.60;;;2.57;;
11473;SDS011;5793;52.238;13.438;2023-11-19T12:21:11;9.13;;;2.90;;
11473;SDS011;5793;52.238;13.438;2023-11-19T12:23:54;9.83;;;3.20;;
11473;SDS011;5793;52.238;13.438;2023-11-19T12:26:34;14.33;;;3.63;;
11473;SDS011;5793;52.238;13.438;2023-11-19T12:29:02;12.30;;;3.30;;
11473;SDS011;5793;52.238;13.438;2023-11-19T12:31:35;11.30;;;3.53;;
11473;SDS011;5793;52.238;13.438;2023-11-19T12:34:09;11.37;;;3.00;;
11473;SDS011;5793;52.238;13.438;2023-11-19T12:36:39;15.97;;;4.03;;
11473;SDS011;5793;52.238;13.438;2023-11-19T12:39:09;10.30;;;3.33;;
11473;SDS011;5793;52.238;13.438;2023-11-19T12:41:52;14.67;;;3.80;;
11473;SDS011;5793;52.238;13.438;2023-11-19T12:44:21;8.97;;;3.40;;
11473;SDS011;5793;52.238;13.438;2023-11-19T12:46:59;10.20;;;3.87;;
11473;SDS011;5793;52.238;13.438;2023-11-19T12:49:30;13.37;;;3.97;;
11473;SDS011;5793;52.238;13.438;2023-11-19T12:51:58;13.80;;;3.77;;
11473;SDS011;5793;52.238;13.438;2023-11-19T12:54:33;13.13;;;3.93;;
11473;SDS011;5793;52.238;13.438;2023-11-19T12:57:04;12.40;;;3.73;;
11473;SDS011;5793;52.238;13.438;2023-11-19T12:59:32;12.93;;;3.80;;
11473;SDS011;5793;52.238;13.438;2023-11-19T13:02:00;14.37;;;4.23;;
11473;SDS011;5793;52.238;13.438;2023-11-19T13:04:29;13.23;;;3.50;;
11473;SDS011;5793;52.238;13.438;2023-11-19T13:06:59;13.37;;;4.30;;
11473;SDS011;5793;52.238;13.438;2023-11-19T13:09:31;15.93;;;5.67;;
11473;SDS011;5793;52.238;13.438;2023-11-19T13:11:59;13.30;;;4.63;;
11473;SDS011;5793;52.238;13.438;2023-11-19T13:14:43;12.80;;;4.53;;
11473;SDS011;5793;52.238;13.438;2023-11-19T13:17:13;12.70;;;5.27;;
11473;SDS011;5793;52.238;13.438;2023-11-19T13:19:41;13.40;;;4.40;;
11473;SDS011;5793;52.238;13.438;2023-11-19T13:22:09;10.77;;;3.80;;
11473;SDS011;5793;52.238;13.438;2023-11-19T13:24:37;15.17;;;4.77;;
11473;SDS011;5793;52.238;13.438;2023-11-19T13:27:06;14.13;;;4.30;;
11473;SDS011;5793;52.238;13.438;2023-11-19T13:29:36;15.90;;;4.50;;
11473;SDS011;5793;52.238;13.438;2023-11-19T13:32:03;18.33;;;4.60;;
11473;SDS011;5793;52.238;13.438;2023-11-19T13:34:32;17.47;;;4.77;;
11473;SDS011;5793;52.238;13.438;2023-11-19T13:36:59;25.17;;;9.40;;
11473;SDS011;5793;52.238;13.438;2023-11-19T13:39:27;13.60;;;4.80;;
11473;SDS011;5793;52.238;13.438;2023-11-19T13:41:55;16.13;;;4.63;;
11473;SDS011;5793;52.238;13.438;2023-11-19T13:44:26;19.93;;;4.60;;
11473;SDS011;5793;52.238;13.438;2023-11-19T13:46:55;13.30;;;3.93;;
11473;SDS011;5793;52.238;13.438;2023-11-19T13:49:23;14.57;;;4.30;;
11473;SDS011;5793;52.238;13.438;2023-11-19T13:51:51;20.43;;;4.37;;
11473;SDS011;5793;52.238;13.438;2023-11-19T13:54:20;15.20;;;4.00;;
11473;SDS011;5793;52.238;13.438;2023-11-19T13:56:49;18.37;;;4.67;;
11473;SDS011;5793;52.238;13.438;2023-11-19T13:59:20;14.60;;;4.37;;
11473;SDS011;5793;52.238;13.438;2023-11-19T14:01:48;14.80;;;4.30;;
11473;SDS011;5793;52.238;13.438;2023-11-19T14:04:17;13.10;;;3.73;;
11473;SDS011;5793;52.238;13.438;2023-11-19T14:06:45;14.87;;;4.23;;
11473;SDS011;5793;52.238;13.438;2023-11-19T14:09:13;17.10;;;4.57;;
11473;SDS011;5793;52.238;13.438;2023-11-19T14:11:41;17.30;;;3.93;;
11473;SDS011;5793;52.238;13.438;2023-11-19T14:14:09;12.20;;;4.23;;
11473;SDS011;5793;52.238;13.438;2023-11-19T14:16:37;20.37;;;4.70;;
11473;SDS011;5793;52.238;13.438;2023-11-19T14:19:05;15.90;;;4.47;;
11473;SDS011;5793;52.238;13.438;2023-11-19T14:21:35;15.10;;;3.90;;
11473;SDS011;5793;52.238;13.438;2023-11-19T14:24:03;18.90;;;4.67;;
11473;SDS011;5793;52.238;13.438;2023-11-19T14:26:31;22.30;;;4.80;;
11473;SDS011;5793;52.238;13.438;2023-11-19T14:28:59;17.57;;;4.63;;
11473;SDS011;5793;52.238;13.438;2023-11-19T14:31:27;18.50;;;4.93;;
11473;SDS011;5793;52.238;13.438;2023-11-19T14:33:55;19.47;;;4.33;;
11473;SDS011;5793;52.238;13.438;2023-11-19T14:36:23;15.63;;;4.53;;
11473;SDS011;5793;52.238;13.438;2023-11-19T14:38:52;15.73;;;4.43;;
11473;SDS011;5793;52.238;13.438;2023-11-19T14:41:20;16.73;;;4.80;;
11473;SDS011;5793;52.238;13.438;2023-11-19T14:43:48;16.53;;;5.23;;
11473;SDS011;5793;52.238;13.438;2023-11-19T14:46:16;17.77;;;5.30;;
11473;SDS011;5793;52.238;13.438;2023-11-19T14:48:44;15.67;;;5.00;;
11473;SDS011;5793;52.238;13.438;2023-11-19T14:51:12;18.47;;;4.77;;
11473;SDS011;5793;52.238;13.438;2023-11-19T14:53:40;21.47;;;7.17;;